sensor_id;sensor_type;location;lat;lon;timestamp;pressure;altitude;pressure_sealevel;temperature;humidity
13612;BME280;6877;51.436;6.774;2023-05-22T00:02:20;100895.69;;;17.45;100.00
13612;BME280;6877;51.436;6.774;2023-05-22T00:04:52;100895.81;;;17.42;100.00
13612;BME280;6877;51.436;6.774;2023-05-22T00:07:19;100886.31;;;17.37;100.00
13612;BME280;6877;51.436;6.774;2023-05-22T00:09:46;100886.59;;;17.31;100.00
13612;BME280;6877;51.436;6.774;2023-05-22T00:12:12;100878.97;;;17.24;100.00
13612;BME280;6877;51.436;6.774;2023-05-22T00:14:43;100878.13;;;17.23;100.00
13612;BME280;6877;51.436;6.774;2023-05-22T00:17:15;100883.13;;;17.29;100.00
13612;BME280;6877;51.436;6.774;2023-05-22T00:19:41;100883.00;;;17.32;100.00
13612;BME280;6877;51.436;6.774;2023-05-22T00:22:08;100874.13;;;17.33;100.00
13612;BME280;6877;51.436;6.774;2023-05-22T00:24:35;100870.72;;;17.31;100.00
13612;BME280;6877;51.436;6.774;2023-05-22T00:27:01;100877.00;;;17.29;100.00
13612;BME280;6877;51.436;6.774;2023-05-22T00:29:32;100881.44;;;17.28;100.00
13612;BME280;6877;51.436;6.774;2023-05-22T00:31:59;100878.13;;;17.23;100.00
13612;BME280;6877;51.436;6.774;2023-05-22T00:34:31;100878.25;;;17.20;100.00
13612;BME280;6877;51.436;6.774;2023-05-22T00:36:57;100877.63;;;17.15;100.00
13612;BME280;6877;51.436;6.774;2023-05-22T00:39:23;100869.00;;;17.10;100.00
13612;BME280;6877;51.436;6.774;2023-05-22T00:41:50;100874.34;;;17.08;100.00
13612;BME280;6877;51.436;6.774;2023-05-22T00:44:17;100877.94;;;17.07;100.00
13612;BME280;6877;51.436;6.774;2023-05-22T00:46:43;100885.00;;;17.07;100.00
13612;BME280;6877;51.436;6.774;2023-05-22T00:49:15;100880.72;;;17.04;100.00
13612;BME280;6877;51.436;6.774;2023-05-22T00:51:41;100880.78;;;17.03;100.00
13612;BME280;6877;51.436;6.774;2023-05-22T00:54:08;100881.91;;;16.97;100.00
13612;BME280;6877;51.436;6.774;2023-05-22T00:56:35;100886.41;;;16.95;100.00
13612;BME280;6877;51.436;6.774;2023-05-22T00:59:01;100878.59;;;16.92;100.00
13612;BME280;6877;51.436;6.774;2023-05-22T01:01:31;100882.09;;;16.92;100.00
13612;BME280;6877;51.436;6.774;2023-05-22T01:04:04;100880.47;;;16.90;100.00
13612;BME280;6877;51.436;6.774;2023-05-22T01:06:33;100888.19;;;16.95;100.00
13612;BME280;6877;51.436;6.774;2023-05-22T01:09:06;100886.47;;;16.94;100.00
13612;BME280;6877;51.436;6.774;2023-05-22T01:11:44;100877.75;;;16.91;100.00
13612;BME280;6877;51.436;6.774;2023-05-22T01:20:24;100865.47;;;16.90;100.00
13612;BME280;6877;51.436;6.774;2023-05-22T01:31:04;100867.03;;;16.95;100.00
13612;BME280;6877;51.436;6.774;2023-05-22T01:33:56;100858.16;;;16.96;100.00
13612;BME280;6877;51.436;6.774;2023-05-22T01:36:26;100859.91;;;16.97;100.00
13612;BME280;6877;51.436;6.774;2023-05-22T01:38:54;100863.44;;;16.96;100.00
13612;BME280;6877;51.436;6.774;2023-05-22T01:41:29;100866.03;;;16.97;100.00
13612;BME280;6877;51.436;6.774;2023-05-22T01:44:03;100861.63;;;16.98;100.00
13612;BME280;6877;51.436;6.774;2023-05-22T01:46:35;100858.16;;;16.96;100.00
13612;BME280;6877;51.436;6.774;2023-05-22T01:49:01;100848.41;;;16.98;100.00
13612;BME280;6877;51.436;6.774;2023-05-22T01:51:52;100852.63;;;17.02;100.00
13612;BME280;6877;51.436;6.774;2023-05-22T01:54:39;100854.53;;;16.98;100.00
13612;BME280;6877;51.436;6.774;2023-05-22T01:57:27;100854.75;;;16.94;100.00
13612;BME280;6877;51.436;6.774;2023-05-22T02:00:06;100845.97;;;16.93;100.00
13612;BME280;6877;51.436;6.774;2023-05-22T02:02:38;100844.22;;;16.92;100.00
13612;BME280;6877;51.436;6.774;2023-05-22T02:05:09;100839.03;;;16.90;100.00
13612;BME280;6877;51.436;6.774;2023-05-22T02:07:38;100841.00;;;16.85;100.00
13612;BME280;6877;51.436;6.774;2023-05-22T02:10:06;100841.94;;;16.84;100.00
13612;BME280;6877;51.436;6.774;2023-05-22T02:12:40;100844.97;;;16.75;100.00
13612;BME280;6877;51.436;6.774;2023-05-22T02:15:07;100840.97;;;16.65;100.00
13612;BME280;6877;51.436;6.774;2023-05-22T02:17:39;100847.50;;;16.56;100.00
13612;BME280;6877;51.436;6.774;2023-05-22T02:20:10;100846.09;;;16.48;100.00
13612;BME280;6877;51.436;6.774;2023-05-22T02:22:46;100841.06;;;16.41;100.00
13612;BME280;6877;51.436;6.774;2023-05-22T02:25:13;100842.16;;;16.36;100.00
13612;BME280;6877;51.436;6.774;2023-05-22T02:27:46;100832.78;;;16.29;100.00
13612;BME280;6877;51.436;6.774;2023-05-22T02:30:17;100841.81;;;16.23;100.00
13612;BME280;6877;51.436;6.774;2023-05-22T02:32:44;100830.63;;;16.16;100.00
13612;BME280;6877;51.436;6.774;2023-05-22T02:35:10;100835.19;;;16.13;100.00
13612;BME280;6877;51.436;6.774;2023-05-22T02:37:37;100836.22;;;16.09;100.00
13612;BME280;6877;51.436;6.774;2023-05-22T02:40:04;100833.72;;;16.06;100.00
13612;BME280;6877;51.436;6.774;2023-05-22T02:42:31;100830.38;;;16.01;100.00
13612;BME280;6877;51.436;6.774;2023-05-22T02:44:57;100836.72;;;15.96;100.00
13612;BME280;6877;51.436;6.774;2023-05-22T02:47:24;100839.47;;;15.93;100.00
13612;BME280;6877;51.436;6.774;2023-05-22T02:49:55;100838.66;;;15.91;100.00
13612;BME280;6877;51.436;6.774;2023-05-22T02:52:28;100835.13;;;15.92;100.00
13612;BME280;6877;51.436;6.774;2023-05-22T02:54:59;100838.63;;;15.93;100.00
13612;BME280;6877;51.436;6.774;2023-05-22T02:57:26;100840.44;;;15.91;100.00
13612;BME280;6877;51.436;6.774;2023-05-22T02:59:52;100840.53;;;15.89;100.00
13612;BME280;6877;51.436;6.774;2023-05-22T03:02:19;100836.03;;;15.91;100.00
13612;BME280;6877;51.436;6.774;2023-05-22T03:04:50;100837.16;;;15.86;100.00
13612;BME280;6877;51.436;6.774;2023-05-22T03:07:17;100835.53;;;15.82;100.00
13612;BME280;6877;51.436;6.774;2023-05-22T03:09:45;100841.66;;;15.82;100.00
13612;BME280;6877;51.436;6.774;2023-05-22T03:12:11;100842.72;;;15.78;100.00
13612;BME280;6877;51.436;6.774;2023-05-22T03:14:38;100833.19;;;15.74;100.00
13612;BME280;6877;51.436;6.774;2023-05-22T03:17:09;100839.44;;;15.71;100.00
13612;BME280;6877;51.436;6.774;2023-05-22T03:19:36;100841.34;;;15.66;100.00
13612;BME280;6877;51.436;6.774;2023-05-22T03:22:07;100840.63;;;15.63;100.00
13612;BME280;6877;51.436;6.774;2023-05-22T03:24:33;100844.41;;;15.56;100.00
13612;BME280;6877;51.436;6.774;2023-05-22T03:27:00;100838.44;;;15.50;100.00
13612;BME280;6877;51.436;6.774;2023-05-22T03:29:31;100840.44;;;15.44;100.00
13612;BME280;6877;51.436;6.774;2023-05-22T03:31:58;100835.41;;;15.38;100.00
13612;BME280;6877;51.436;6.774;2023-05-22T03:34:25;100838.22;;;15.33;100.00
13612;BME280;6877;51.436;6.774;2023-05-22T03:36:52;100842.75;;;15.29;100.00
13612;BME280;6877;51.436;6.774;2023-05-22T03:39:19;100840.22;;;15.26;100.00
13612;BME280;6877;51.436;6.774;2023-05-22T03:41:45;100841.22;;;15.22;100.00
13612;BME280;6877;51.436;6.774;2023-05-22T03:44:12;100838.66;;;15.21;100.00
13612;BME280;6877;51.436;6.774;2023-05-22T03:46:38;100837.91;;;15.17;100.00
13612;BME280;6877;51.436;6.774;2023-05-22T03:49:10;100838.88;;;15.15;100.00
13612;BME280;6877;51.436;6.774;2023-05-22T03:51:36;100831.91;;;15.14;100.00
13612;BME280;6877;51.436;6.774;2023-05-22T03:54:03;100841.59;;;15.13;100.00
13612;BME280;6877;51.436;6.774;2023-05-22T03:56:29;100837.19;;;15.14;100.00
13612;BME280;6877;51.436;6.774;2023-05-22T03:58:55;100835.22;;;15.19;100.00
13612;BME280;6877;51.436;6.774;2023-05-22T04:01:22;100832.66;;;15.17;100.00
13612;BME280;6877;51.436;6.774;2023-05-22T04:03:49;100829.94;;;15.19;100.00
13612;BME280;6877;51.436;6.774;2023-05-22T04:06:15;100835.09;;;15.22;100.00
13612;BME280;6877;51.436;6.774;2023-05-22T04:08:42;100841.13;;;15.25;100.00
13612;BME280;6877;51.436;6.774;2023-05-22T04:11:09;100834.88;;;15.28;100.00
13612;BME280;6877;51.436;6.774;2023-05-22T04:13:36;100836.63;;;15.29;100.00
13612;BME280;6877;51.436;6.774;2023-05-22T04:16:02;100843.44;;;15.35;100.00
13612;BME280;6877;51.436;6.774;2023-05-22T04:18:29;100843.44;;;15.35;100.00
13612;BME280;6877;51.436;6.774;2023-05-22T04:20:56;100842.53;;;15.36;100.00
13612;BME280;6877;51.436;6.774;2023-05-22T04:23:22;100838.91;;;15.38;100.00
13612;BME280;6877;51.436;6.774;2023-05-22T04:25:49;100838.00;;;15.39;100.00
13612;BME280;6877;51.436;6.774;2023-05-22T04:28:15;100836.00;;;15.46;100.00
13612;BME280;6877;51.436;6.774;2023-05-22T04:30:52;100843.72;;;15.50;100.00
13612;BME280;6877;51.436;6.774;2023-05-22T04:33:19;100847.78;;;15.59;100.00
13612;BME280;6877;51.436;6.774;2023-05-22T04:35:46;100850.19;;;15.65;100.00
13612;BME280;6877;51.436;6.774;2023-05-22T04:38:13;100856.13;;;15.72;100.00
13612;BME280;6877;51.436;6.774;2023-05-22T04:40:41;100847.16;;;15.76;100.00
13612;BME280;6877;51.436;6.774;2023-05-22T04:43:09;100857.59;;;15.79;100.00
13612;BME280;6877;51.436;6.774;2023-05-22T04:45:36;100858.41;;;15.81;100.00
13612;BME280;6877;51.436;6.774;2023-05-22T04:48:04;100861.03;;;15.83;100.00
13612;BME280;6877;51.436;6.774;2023-05-22T04:50:31;100859.13;;;15.86;100.00
13612;BME280;6877;51.436;6.774;2023-05-22T04:53:02;100854.63;;;15.88;100.00
13612;BME280;6877;51.436;6.774;2023-05-22T04:55:30;100855.44;;;15.90;100.00
13612;BME280;6877;51.436;6.774;2023-05-22T04:58:05;100864.94;;;15.94;100.00
13612;BME280;6877;51.436;6.774;2023-05-22T05:00:31;100851.63;;;15.97;100.00
13612;BME280;6877;51.436;6.774;2023-05-22T05:02:58;100854.94;;;16.03;100.00
13612;BME280;6877;51.436;6.774;2023-05-22T05:05:30;100859.19;;;16.07;100.00
13612;BME280;6877;51.436;6.774;2023-05-22T05:07:56;100852.84;;;16.11;100.00
13612;BME280;6877;51.436;6.774;2023-05-22T05:10:28;100854.47;;;16.15;100.00
13612;BME280;6877;51.436;6.774;2023-05-22T05:12:54;100852.47;;;16.20;100.00
13612;BME280;6877;51.436;6.774;2023-05-22T05:15:21;100852.38;;;16.23;100.00
13612;BME280;6877;51.436;6.774;2023-05-22T05:17:54;100859.19;;;16.29;100.00
13612;BME280;6877;51.436;6.774;2023-05-22T05:20:26;100849.22;;;16.35;100.00
13612;BME280;6877;51.436;6.774;2023-05-22T05:22:52;100856.78;;;16.44;100.00
13612;BME280;6877;51.436;6.774;2023-05-22T05:25:19;100857.47;;;16.50;100.00
13612;BME280;6877;51.436;6.774;2023-05-22T05:27:45;100858.09;;;16.55;100.00
13612;BME280;6877;51.436;6.774;2023-05-22T05:30:16;100856.16;;;16.60;100.00
13612;BME280;6877;51.436;6.774;2023-05-22T05:32:44;100862.16;;;16.63;100.00
13612;BME280;6877;51.436;6.774;2023-05-22T05:35:10;100860.06;;;16.72;100.00
13612;BME280;6877;51.436;6.774;2023-05-22T05:37:37;100857.19;;;16.78;100.00
13612;BME280;6877;51.436;6.774;2023-05-22T05:40:04;100856.00;;;16.85;100.00
13612;BME280;6877;51.436;6.774;2023-05-22T05:42:32;100858.16;;;16.96;100.00
13612;BME280;6877;51.436;6.774;2023-05-22T05:44:58;100866.50;;;17.07;100.00
13612;BME280;6877;51.436;6.774;2023-05-22T05:47:30;100867.69;;;17.20;100.00
13612;BME280;6877;51.436;6.774;2023-05-22T05:49:56;100870.44;;;17.37;100.00
13612;BME280;6877;51.436;6.774;2023-05-22T05:52:28;100865.38;;;17.52;100.00
13612;BME280;6877;51.436;6.774;2023-05-22T05:55:00;100875.41;;;17.64;100.00
13612;BME280;6877;51.436;6.774;2023-05-22T05:57:28;100876.38;;;17.82;100.00
13612;BME280;6877;51.436;6.774;2023-05-22T05:59:54;100879.63;;;18.06;100.00
13612;BME280;6877;51.436;6.774;2023-05-22T06:02:26;100878.25;;;18.35;100.00
13612;BME280;6877;51.436;6.774;2023-05-22T06:04:57;100874.38;;;18.60;100.00
13612;BME280;6877;51.436;6.774;2023-05-22T06:07:29;100872.91;;;18.71;100.00
13612;BME280;6877;51.436;6.774;2023-05-22T06:10:00;100871.78;;;18.77;100.00
13612;BME280;6877;51.436;6.774;2023-05-22T06:12:31;100867.75;;;18.68;100.00
13612;BME280;6877;51.436;6.774;2023-05-22T06:15:03;100873.84;;;18.70;100.00
13612;BME280;6877;51.436;6.774;2023-05-22T06:17:30;100876.50;;;18.70;100.00
13612;BME280;6877;51.436;6.774;2023-05-22T06:19:57;100875.13;;;18.81;100.00
13612;BME280;6877;51.436;6.774;2023-05-22T06:22:24;100884.72;;;19.01;100.00
13612;BME280;6877;51.436;6.774;2023-05-22T06:24:55;100878.97;;;19.26;100.00
13612;BME280;6877;51.436;6.774;2023-05-22T06:27:27;100886.75;;;19.46;100.00
13612;BME280;6877;51.436;6.774;2023-05-22T06:29:53;100891.66;;;19.71;100.00
13612;BME280;6877;51.436;6.774;2023-05-22T06:32:25;100899.72;;;20.01;100.00
13612;BME280;6877;51.436;6.774;2023-05-22T06:34:51;100889.06;;;20.33;100.00
13612;BME280;6877;51.436;6.774;2023-05-22T06:37:18;100893.31;;;20.67;100.00
13612;BME280;6877;51.436;6.774;2023-05-22T06:39:44;100894.06;;;20.99;99.46
13612;BME280;6877;51.436;6.774;2023-05-22T06:42:11;100901.56;;;21.23;99.66
13612;BME280;6877;51.436;6.774;2023-05-22T06:44:42;100896.72;;;21.29;94.26
13612;BME280;6877;51.436;6.774;2023-05-22T06:47:09;100899.72;;;21.54;95.78
13612;BME280;6877;51.436;6.774;2023-05-22T06:49:35;100900.03;;;21.90;93.86
13612;BME280;6877;51.436;6.774;2023-05-22T06:52:02;100907.16;;;22.18;91.44
13612;BME280;6877;51.436;6.774;2023-05-22T06:54:28;100914.47;;;22.15;87.29
13612;BME280;6877;51.436;6.774;2023-05-22T06:56:55;100908.94;;;22.32;88.29
13612;BME280;6877;51.436;6.774;2023-05-22T06:59:22;100913.22;;;22.62;85.89
13612;BME280;6877;51.436;6.774;2023-05-22T07:01:49;100913.63;;;22.56;82.74
13612;BME280;6877;51.436;6.774;2023-05-22T07:04:15;100915.28;;;22.44;83.61
13612;BME280;6877;51.436;6.774;2023-05-22T07:06:42;100915.66;;;22.38;82.94
13612;BME280;6877;51.436;6.774;2023-05-22T07:09:13;100914.28;;;22.32;82.63
13612;BME280;6877;51.436;6.774;2023-05-22T07:11:40;100918.34;;;22.38;82.29
13612;BME280;6877;51.436;6.774;2023-05-22T07:14:09;100912.72;;;22.42;82.05
13612;BME280;6877;51.436;6.774;2023-05-22T07:16:39;100922.59;;;22.55;81.49
13612;BME280;6877;51.436;6.774;2023-05-22T07:19:06;100920.84;;;22.81;79.96
13612;BME280;6877;51.436;6.774;2023-05-22T07:21:34;100929.91;;;23.18;78.13
13612;BME280;6877;51.436;6.774;2023-05-22T07:24:02;100936.13;;;23.57;75.92
13612;BME280;6877;51.436;6.774;2023-05-22T07:26:34;100936.50;;;24.02;75.47
13612;BME280;6877;51.436;6.774;2023-05-22T07:29:06;100945.78;;;24.22;73.04
13612;BME280;6877;51.436;6.774;2023-05-22T07:31:32;100943.38;;;24.43;72.59
13612;BME280;6877;51.436;6.774;2023-05-22T07:33:59;100952.78;;;24.72;70.81
13612;BME280;6877;51.436;6.774;2023-05-22T07:36:31;100956.97;;;24.88;69.60
13612;BME280;6877;51.436;6.774;2023-05-22T07:38:57;100950.47;;;25.03;68.95
13612;BME280;6877;51.436;6.774;2023-05-22T07:41:29;100952.81;;;24.84;69.08
13612;BME280;6877;51.436;6.774;2023-05-22T07:43:55;100960.44;;;24.77;70.15
13612;BME280;6877;51.436;6.774;2023-05-22T07:46:22;100954.69;;;24.70;70.20
13612;BME280;6877;51.436;6.774;2023-05-22T07:48:53;100945.09;;;24.44;70.45
13612;BME280;6877;51.436;6.774;2023-05-22T07:51:20;100954.66;;;24.22;70.60
13612;BME280;6877;51.436;6.774;2023-05-22T07:53:46;100957.13;;;24.49;70.90
13612;BME280;6877;51.436;6.774;2023-05-22T07:56:13;100955.16;;;24.88;68.95
13612;BME280;6877;51.436;6.774;2023-05-22T07:58:39;100961.78;;;25.42;67.16
13612;BME280;6877;51.436;6.774;2023-05-22T08:01:06;100962.47;;;26.02;64.28
13612;BME280;6877;51.436;6.774;2023-05-22T08:03:33;100974.22;;;26.55;61.98
13612;BME280;6877;51.436;6.774;2023-05-22T08:05:59;100975.47;;;26.51;61.06
13612;BME280;6877;51.436;6.774;2023-05-22T08:08:26;100974.66;;;25.95;62.40
13612;BME280;6877;51.436;6.774;2023-05-22T08:10:57;100971.19;;;25.12;64.20
13612;BME280;6877;51.436;6.774;2023-05-22T08:13:28;100989.41;;;24.72;65.81
13612;BME280;6877;51.436;6.774;2023-05-22T08:15:55;100977.66;;;24.86;65.89
13612;BME280;6877;51.436;6.774;2023-05-22T08:18:22;100984.94;;;24.60;65.50
13612;BME280;6877;51.436;6.774;2023-05-22T08:20:48;100976.69;;;24.13;66.75
13612;BME280;6877;51.436;6.774;2023-05-22T08:23:16;100980.63;;;24.20;65.82
13612;BME280;6877;51.436;6.774;2023-05-22T08:25:47;100986.31;;;24.28;66.42
13612;BME280;6877;51.436;6.774;2023-05-22T08:28:15;100974.91;;;24.01;66.64
13612;BME280;6877;51.436;6.774;2023-05-22T08:30:41;100974.47;;;23.56;68.04
13612;BME280;6877;51.436;6.774;2023-05-22T08:33:13;100972.94;;;23.26;69.42
13612;BME280;6877;51.436;6.774;2023-05-22T08:35:39;100977.19;;;22.76;70.98
13612;BME280;6877;51.436;6.774;2023-05-22T08:38:10;100975.34;;;22.50;72.79
13612;BME280;6877;51.436;6.774;2023-05-22T08:40:37;100973.84;;;22.46;73.04
13612;BME280;6877;51.436;6.774;2023-05-22T08:43:05;100982.38;;;22.24;73.58
13612;BME280;6877;51.436;6.774;2023-05-22T08:45:33;100976.53;;;22.03;74.72
13612;BME280;6877;51.436;6.774;2023-05-22T08:48:03;100977.31;;;21.90;75.41
13612;BME280;6877;51.436;6.774;2023-05-22T08:50:40;100984.09;;;21.82;76.09
13612;BME280;6877;51.436;6.774;2023-05-22T08:53:14;100980.72;;;21.78;76.37
13612;BME280;6877;51.436;6.774;2023-05-22T08:55:46;100979.53;;;21.69;75.73
13612;BME280;6877;51.436;6.774;2023-05-22T08:58:18;100972.28;;;21.57;76.11
13612;BME280;6877;51.436;6.774;2023-05-22T09:00:45;100980.44;;;21.54;75.90
13612;BME280;6877;51.436;6.774;2023-05-22T09:03:13;100986.25;;;21.61;75.91
13612;BME280;6877;51.436;6.774;2023-05-22T09:05:40;100986.44;;;21.72;75.87
13612;BME280;6877;51.436;6.774;2023-05-22T09:08:12;100989.09;;;21.72;75.43
13612;BME280;6877;51.436;6.774;2023-05-22T09:10:38;100985.97;;;21.51;75.76
13612;BME280;6877;51.436;6.774;2023-05-22T09:13:07;100992.03;;;21.53;76.38
13612;BME280;6877;51.436;6.774;2023-05-22T09:15:42;100994.03;;;21.49;76.11
13612;BME280;6877;51.436;6.774;2023-05-22T09:18:09;100991.25;;;21.37;76.25
13612;BME280;6877;51.436;6.774;2023-05-22T09:20:37;100993.66;;;21.25;76.80
13612;BME280;6877;51.436;6.774;2023-05-22T09:23:13;100998.72;;;21.30;77.00
13612;BME280;6877;51.436;6.774;2023-05-22T09:25:41;101000.03;;;21.23;76.18
13612;BME280;6877;51.436;6.774;2023-05-22T09:28:13;101003.06;;;21.17;76.38
13612;BME280;6877;51.436;6.774;2023-05-22T09:30:39;100999.19;;;21.22;76.10
13612;BME280;6877;51.436;6.774;2023-05-22T09:33:12;101003.16;;;21.45;75.60
13612;BME280;6877;51.436;6.774;2023-05-22T09:35:39;101007.47;;;21.77;73.94
13612;BME280;6877;51.436;6.774;2023-05-22T09:38:07;101009.09;;;21.93;73.15
13612;BME280;6877;51.436;6.774;2023-05-22T09:40:36;101011.13;;;22.33;71.87
13612;BME280;6877;51.436;6.774;2023-05-22T09:43:08;101013.16;;;22.56;70.17
13612;BME280;6877;51.436;6.774;2023-05-22T09:45:40;101003.59;;;22.66;69.15
13612;BME280;6877;51.436;6.774;2023-05-22T09:48:08;101010.78;;;22.52;68.76
13612;BME280;6877;51.436;6.774;2023-05-22T09:50:35;101010.16;;;22.34;70.04
13612;BME280;6877;51.436;6.774;2023-05-22T09:53:03;101006.53;;;22.76;69.25
13612;BME280;6877;51.436;6.774;2023-05-22T09:55:35;101015.59;;;24.30;64.64
13612;BME280;6877;51.436;6.774;2023-05-22T09:58:03;101024.63;;;25.38;60.52
13612;BME280;6877;51.436;6.774;2023-05-22T10:00:32;101016.19;;;26.00;57.93
13612;BME280;6877;51.436;6.774;2023-05-22T10:03:08;101018.13;;;26.32;55.53
13612;BME280;6877;51.436;6.774;2023-05-22T10:05:46;101024.75;;;26.39;55.53
13612;BME280;6877;51.436;6.774;2023-05-22T10:08:25;101021.22;;;26.27;54.54
13612;BME280;6877;51.436;6.774;2023-05-22T10:10:57;101020.72;;;26.22;53.71
13612;BME280;6877;51.436;6.774;2023-05-22T10:13:25;101015.44;;;26.43;54.41
13612;BME280;6877;51.436;6.774;2023-05-22T10:15:53;101015.91;;;27.35;52.07
13612;BME280;6877;51.436;6.774;2023-05-22T10:18:20;101020.78;;;27.62;50.26
13612;BME280;6877;51.436;6.774;2023-05-22T10:20:47;101019.13;;;28.63;47.55
13612;BME280;6877;51.436;6.774;2023-05-22T10:23:14;101022.81;;;28.81;46.64
13612;BME280;6877;51.436;6.774;2023-05-22T10:25:48;101005.69;;;29.21;46.17
13612;BME280;6877;51.436;6.774;2023-05-22T10:28:24;101011.00;;;30.44;43.48
13612;BME280;6877;51.436;6.774;2023-05-22T10:30:59;101004.56;;;29.90;43.06
13612;BME280;6877;51.436;6.774;2023-05-22T10:33:43;101003.31;;;30.67;42.03
13612;BME280;6877;51.436;6.774;2023-05-22T10:39:26;101018.59;;;32.93;36.62
13612;BME280;6877;51.436;6.774;2023-05-22T10:41:56;101005.41;;;33.64;35.69
13612;BME280;6877;51.436;6.774;2023-05-22T10:44:28;101008.22;;;34.34;34.02
13612;BME280;6877;51.436;6.774;2023-05-22T10:46:54;101003.06;;;34.56;33.80
13612;BME280;6877;51.436;6.774;2023-05-22T10:49:26;101012.53;;;34.83;32.96
13612;BME280;6877;51.436;6.774;2023-05-22T10:51:56;101010.28;;;35.33;32.26
13612;BME280;6877;51.436;6.774;2023-05-22T10:54:53;101003.50;;;35.14;31.61
13612;BME280;6877;51.436;6.774;2023-05-22T10:57:24;101004.38;;;34.83;32.48
13612;BME280;6877;51.436;6.774;2023-05-22T11:00:05;101007.66;;;34.78;32.13
13612;BME280;6877;51.436;6.774;2023-05-22T11:02:37;101000.09;;;35.12;32.20
13612;BME280;6877;51.436;6.774;2023-05-22T11:07:47;100986.03;;;35.08;32.01
13612;BME280;6877;51.436;6.774;2023-05-22T11:10:25;100995.06;;;34.77;32.52
13612;BME280;6877;51.436;6.774;2023-05-22T11:13:12;100985.88;;;35.01;31.97
13612;BME280;6877;51.436;6.774;2023-05-22T11:15:43;100990.44;;;34.63;32.49
13612;BME280;6877;51.436;6.774;2023-05-22T11:18:10;100987.34;;;34.35;32.92
13612;BME280;6877;51.436;6.774;2023-05-22T11:20:38;100981.59;;;34.30;33.11
13612;BME280;6877;51.436;6.774;2023-05-22T11:23:05;100977.94;;;33.51;34.27
13612;BME280;6877;51.436;6.774;2023-05-22T11:25:34;100980.31;;;33.37;35.28
13612;BME280;6877;51.436;6.774;2023-05-22T11:28:03;100972.50;;;33.59;34.59
13612;BME280;6877;51.436;6.774;2023-05-22T11:30:35;100983.72;;;33.07;35.88
13612;BME280;6877;51.436;6.774;2023-05-22T11:33:03;100971.31;;;32.13;37.18
13612;BME280;6877;51.436;6.774;2023-05-22T11:35:36;100967.19;;;31.40;39.34
13612;BME280;6877;51.436;6.774;2023-05-22T11:38:04;100967.69;;;30.82;40.51
13612;BME280;6877;51.436;6.774;2023-05-22T11:40:32;100957.22;;;30.33;41.79
13612;BME280;6877;51.436;6.774;2023-05-22T11:42:58;100952.34;;;29.82;43.07
13612;BME280;6877;51.436;6.774;2023-05-22T11:45:30;100947.34;;;29.40;44.37
13612;BME280;6877;51.436;6.774;2023-05-22T11:47:56;100943.69;;;29.21;45.49
13612;BME280;6877;51.436;6.774;2023-05-22T11:50:23;100942.28;;;29.27;45.99
13612;BME280;6877;51.436;6.774;2023-05-22T11:52:52;100936.75;;;29.19;45.75
13612;BME280;6877;51.436;6.774;2023-05-22T11:55:18;100940.31;;;29.09;46.54
13612;BME280;6877;51.436;6.774;2023-05-22T11:57:45;100940.00;;;29.22;46.47
13612;BME280;6877;51.436;6.774;2023-05-22T12:00:13;100943.72;;;28.92;46.74
13612;BME280;6877;51.436;6.774;2023-05-22T12:02:45;100945.25;;;28.56;47.88
13612;BME280;6877;51.436;6.774;2023-05-22T12:05:12;100934.72;;;28.33;48.64
13612;BME280;6877;51.436;6.774;2023-05-22T12:07:41;100943.34;;;28.27;49.25
13612;BME280;6877;51.436;6.774;2023-05-22T12:10:08;100939.69;;;28.38;48.83
13612;BME280;6877;51.436;6.774;2023-05-22T12:12:39;100930.91;;;28.36;49.39
13612;BME280;6877;51.436;6.774;2023-05-22T12:15:06;100931.66;;;27.98;49.63
13612;BME280;6877;51.436;6.774;2023-05-22T12:17:38;100927.22;;;27.56;51.36
13612;BME280;6877;51.436;6.774;2023-05-22T12:20:11;100926.25;;;27.67;50.87
13612;BME280;6877;51.436;6.774;2023-05-22T12:22:44;100927.28;;;27.97;50.42
13612;BME280;6877;51.436;6.774;2023-05-22T12:25:15;100922.22;;;28.13;49.90
13612;BME280;6877;51.436;6.774;2023-05-22T12:27:50;100926.00;;;28.01;50.09
13612;BME280;6877;51.436;6.774;2023-05-22T12:30:17;100926.72;;;27.72;51.10
13612;BME280;6877;51.436;6.774;2023-05-22T12:32:47;100921.16;;;27.94;50.60
13612;BME280;6877;51.436;6.774;2023-05-22T12:35:17;100927.06;;;28.19;49.76
13612;BME280;6877;51.436;6.774;2023-05-22T12:37:50;100925.44;;;27.97;49.99
13612;BME280;6877;51.436;6.774;2023-05-22T12:40:16;100921.63;;;27.69;50.99
13612;BME280;6877;51.436;6.774;2023-05-22T12:42:43;100917.69;;;27.52;51.46
13612;BME280;6877;51.436;6.774;2023-05-22T12:45:10;100916.41;;;27.46;51.77
13612;BME280;6877;51.436;6.774;2023-05-22T12:47:38;100911.84;;;27.37;52.27
13612;BME280;6877;51.436;6.774;2023-05-22T12:50:05;100908.97;;;27.29;52.57
13612;BME280;6877;51.436;6.774;2023-05-22T12:52:32;100909.97;;;27.59;52.24
13612;BME280;6877;51.436;6.774;2023-05-22T12:55:03;100900.34;;;27.56;51.68
13612;BME280;6877;51.436;6.774;2023-05-22T12:57:30;100899.00;;;27.20;52.37
13612;BME280;6877;51.436;6.774;2023-05-22T12:59:56;100902.78;;;26.96;53.24
13612;BME280;6877;51.436;6.774;2023-05-22T13:02:23;100899.50;;;26.72;53.76
13612;BME280;6877;51.436;6.774;2023-05-22T13:04:49;100903.94;;;26.62;53.82
13612;BME280;6877;51.436;6.774;2023-05-22T13:07:15;100896.78;;;26.83;53.94
13612;BME280;6877;51.436;6.774;2023-05-22T13:09:42;100894.66;;;27.08;53.60
13612;BME280;6877;51.436;6.774;2023-05-22T13:12:13;100903.69;;;27.07;53.78
13612;BME280;6877;51.436;6.774;2023-05-22T13:14:40;100904.25;;;27.21;53.49
13612;BME280;6877;51.436;6.774;2023-05-22T13:17:06;100910.22;;;27.25;52.74
13612;BME280;6877;51.436;6.774;2023-05-22T13:19:33;100900.06;;;27.29;52.24
13612;BME280;6877;51.436;6.774;2023-05-22T13:22:05;100899.59;;;27.02;52.60
13612;BME280;6877;51.436;6.774;2023-05-22T13:24:32;100895.56;;;26.76;52.79
13612;BME280;6877;51.436;6.774;2023-05-22T13:26:59;100891.84;;;26.67;53.34